Time;durP1;ratioP1;P1;durP2;ratioP2;P2;SDS_P1;SDS_P2;PMS_P1;PMS_P2;Temp;Humidity;BMP_temperature;BMP_pressure;BME280_temperature;BME280_humidity;BME280_pressure;Samples;Min_cycle;Max_cycle;Signal;HPM_P1;HPM_P2
2023/05/20 00:00:17;;;;;;;8.30;3.50;;;10.10;99.90;;;;;;5055577;28;20455;-77
2023/05/20 00:02:43;;;;;;;7.95;3.17;;;10.00;99.90;;;;;;5037091;28;20412;-78
2023/05/20 00:05:10;;;;;;;8.38;3.15;;;10.00;99.90;;;;;;5037887;28;20087;-78
2023/05/20 00:07:37;;;;;;;10.15;3.45;;;10.00;99.90;;;;;;5037866;28;20151;-78
2023/05/20 00:10:04;;;;;;;18.35;3.80;;;9.90;99.90;;;;;;5037199;28;20087;-78
2023/05/20 00:12:30;;;;;;;9.52;3.15;;;9.90;99.90;;;;;;5037953;28;20041;-78
2023/05/20 00:14:57;;;;;;;10.52;3.97;;;9.90;99.90;;;;;;5055123;28;20430;-78
2023/05/20 00:17:27;;;;;;;8.77;3.15;;;9.80;99.90;;;;;;5037223;28;20067;-78
2023/05/20 00:19:53;;;;;;;10.85;3.28;;;9.80;99.90;;;;;;5021375;28;20052;-77
2023/05/20 00:22:20;;;;;;;10.00;3.38;;;9.70;99.90;;;;;;5037177;28;20414;-78
2023/05/20 00:24:47;;;;;;;13.57;3.15;;;9.70;99.90;;;;;;5037683;28;20037;-78
2023/05/20 00:29:59;;;;;;;12.23;3.35;;;9.60;99.90;;;;;;5054232;28;20060;-78
2023/05/20 00:32:26;;;;;;;10.70;3.58;;;9.60;99.90;;;;;;5054950;28;20400;-78
2023/05/20 00:34:52;;;;;;;13.35;3.92;;;9.50;99.90;;;;;;5037208;28;20095;-77
2023/05/20 00:37:20;;;;;;;17.17;4.43;;;9.50;99.90;;;;;;5053916;28;20064;-78
2023/05/20 00:39:47;;;;;;;13.15;3.75;;;9.40;99.90;;;;;;5054640;28;20376;-77
2023/05/20 00:42:14;;;;;;;14.32;4.38;;;9.40;99.90;;;;;;5036363;28;20106;-77
2023/05/20 00:44:41;;;;;;;19.05;4.05;;;9.40;99.90;;;;;;5037236;28;20120;-78
2023/05/20 00:47:08;;;;;;;9.05;3.80;;;9.30;99.90;;;;;;5037118;28;20063;-78
2023/05/20 00:49:34;;;;;;;10.65;3.92;;;9.30;99.90;;;;;;5020043;28;20072;-77
2023/05/20 00:52:01;;;;;;;9.40;3.70;;;9.30;99.90;;;;;;5054720;28;20052;-77
2023/05/20 00:54:28;;;;;;;12.00;3.47;;;9.30;99.90;;;;;;5037157;28;20357;-78
2023/05/20 00:59:46;;;;;;;9.23;3.60;;;9.30;99.90;;;;;;5034975;28;20048;-78
2023/05/20 01:02:13;;;;;;;;;;;9.20;99.90;;;;;;5017233;28;20111;-78
2023/05/20 01:04:45;;;;;;;8.23;3.13;;;9.20;99.90;;;;;;5017197;28;19989;-78
2023/05/20 01:07:13;;;;;;;11.45;3.38;;;9.10;99.90;;;;;;5016763;28;20435;-78
2023/05/20 01:09:39;;;;;;;14.18;3.95;;;9.10;99.90;;;;;;5016254;28;20045;-78
2023/05/20 01:12:08;;;;;;;11.27;4.03;;;9.00;99.90;;;;;;5017141;28;20057;-78
2023/05/20 01:14:34;;;;;;;14.57;4.70;;;9.00;99.90;;;;;;5034586;28;20071;-78
2023/05/20 01:19:49;;;;;;;14.60;3.30;;;8.90;99.90;;;;;;5017008;28;20049;-78
2023/05/20 01:22:16;;;;;;;17.48;3.78;;;8.90;99.90;;;;;;5033681;28;20179;-78
2023/05/20 01:24:43;;;;;;;10.10;3.70;;;8.90;99.90;;;;;;5000958;28;20075;-78
2023/05/20 01:29:55;;;;;;;15.48;3.53;;;8.80;99.90;;;;;;5033476;28;20049;-78
2023/05/20 01:32:22;;;;;;;16.83;4.25;;;8.70;99.90;;;;;;5017181;28;20048;-79
2023/05/20 01:34:49;;;;;;;16.58;4.20;;;8.70;99.90;;;;;;5016995;28;20539;-78
2023/05/20 01:37:17;;;;;;;10.43;3.55;;;8.60;99.90;;;;;;5033442;28;20037;-78
2023/05/20 01:39:44;;;;;;;12.88;3.85;;;8.60;99.90;;;;;;5017291;28;20053;-78
2023/05/20 01:42:11;;;;;;;13.50;4.13;;;8.60;99.90;;;;;;5016774;28;20046;-79
2023/05/20 01:44:37;;;;;;;12.27;4.05;;;8.50;99.90;;;;;;5000700;28;20077;-78
2023/05/20 01:49:52;;;;;;;13.18;3.63;;;8.50;99.90;;;;;;5016975;28;20144;-78
2023/05/20 01:52:19;;;;;;;10.52;4.03;;;8.50;99.90;;;;;;5034854;28;20107;-77
2023/05/20 01:54:49;;;;;;;10.60;3.67;;;8.40;99.90;;;;;;5037995;28;20103;-78
2023/05/20 01:57:17;;;;;;;11.73;3.55;;;8.40;99.90;;;;;;5053433;28;20423;-79
2023/05/20 01:59:43;;;;;;;9.90;3.72;;;8.40;99.90;;;;;;5036881;28;20037;-79
2023/05/20 02:02:10;;;;;;;19.10;4.30;;;8.40;99.90;;;;;;5019848;28;20136;-77
2023/05/20 02:04:37;;;;;;;11.43;3.58;;;8.40;99.90;;;;;;5053925;28;20053;-78
2023/05/20 02:07:05;;;;;;;15.55;4.13;;;8.40;99.90;;;;;;5055082;28;20043;-78
2023/05/20 02:09:32;;;;;;;10.52;3.88;;;8.40;99.90;;;;;;5035522;28;20139;-78
2023/05/20 02:11:58;;;;;;;12.82;4.22;;;8.50;99.90;;;;;;5037265;28;20140;-78
2023/05/20 02:14:25;;;;;;;13.23;3.95;;;8.50;99.90;;;;;;5037280;28;20037;-79
2023/05/20 02:16:55;;;;;;;15.60;4.10;;;8.60;99.90;;;;;;5055326;28;20045;-78
2023/05/20 02:19:22;;;;;;;10.55;4.00;;;8.60;99.90;;;;;;5040946;28;20037;-78
2023/05/20 02:21:49;;;;;;;13.07;3.83;;;8.70;99.90;;;;;;5041366;28;20045;-79
2023/05/20 02:24:16;;;;;;;13.68;3.60;;;8.70;99.90;;;;;;5041693;28;20123;-79
2023/05/20 02:26:53;;;;;;;13.85;3.92;;;8.70;99.90;;;;;;5040701;28;20128;-79
2023/05/20 02:29:21;;;;;;;9.93;3.65;;;8.60;99.90;;;;;;5041354;28;20056;-79
2023/05/20 02:31:48;;;;;;;13.15;4.00;;;8.60;99.90;;;;;;5040359;28;20406;-78
2023/05/20 02:34:15;;;;;;;10.00;3.47;;;8.60;99.90;;;;;;5040579;28;20056;-79
2023/05/20 02:36:42;;;;;;;9.13;3.53;;;8.50;99.90;;;;;;5056960;28;20036;-78
2023/05/20 02:39:10;;;;;;;12.32;4.13;;;8.50;99.90;;;;;;5040220;28;20041;-78
2023/05/20 02:41:37;;;;;;;11.63;4.03;;;8.40;99.90;;;;;;5069562;28;20463;-78
2023/05/20 02:44:03;;;;;;;10.93;3.58;;;8.40;99.90;;;;;;5058955;28;20528;-78
2023/05/20 02:46:30;;;;;;;10.55;3.58;;;8.30;99.90;;;;;;5076663;28;20485;-79
2023/05/20 02:48:58;;;;;;;11.05;3.47;;;8.20;99.90;;;;;;5078073;28;20168;-78
2023/05/20 02:51:26;;;;;;;9.88;4.18;;;8.20;99.90;;;;;;5076164;28;20086;-78
2023/05/20 02:53:52;;;;;;;10.13;3.28;;;8.10;99.90;;;;;;5076842;28;20040;-78
2023/05/20 02:56:20;;;;;;;12.25;3.75;;;8.10;99.90;;;;;;5058571;28;20044;-77
2023/05/20 02:58:47;;;;;;;9.73;3.20;;;8.10;99.90;;;;;;5055810;28;20045;-78
2023/05/20 03:01:14;;;;;;;15.70;3.95;;;8.00;99.90;;;;;;5039691;28;20048;-78
2023/05/20 03:03:41;;;;;;;25.33;3.90;;;8.00;99.90;;;;;;5055020;28;20033;-78
2023/05/20 03:06:10;;;;;;;12.73;3.47;;;8.00;99.90;;;;;;5056693;28;20507;-78
2023/05/20 03:08:38;;;;;;;10.80;3.88;;;8.00;99.90;;;;;;5055936;28;20394;-79
2023/05/20 03:11:05;;;;;;;8.63;3.15;;;8.00;99.90;;;;;;5056601;28;20044;-78
2023/05/20 03:13:33;;;;;;;12.18;3.60;;;8.10;99.90;;;;;;5056970;28;20100;-78
2023/05/20 03:16:00;;;;;;;12.55;4.30;;;8.10;99.90;;;;;;5054965;28;20543;-78
2023/05/20 03:18:27;;;;;;;13.73;3.97;;;8.20;99.90;;;;;;5055958;28;20098;-79
2023/05/20 03:20:54;;;;;;;13.05;3.92;;;8.30;99.90;;;;;;5039027;28;20038;-79
2023/05/20 03:23:20;;;;;;;11.15;4.07;;;8.40;99.90;;;;;;5039483;28;20052;-79
2023/05/20 03:25:47;;;;;;;17.25;3.55;;;8.50;99.90;;;;;;5056633;28;20107;-78
2023/05/20 03:28:14;;;;;;;9.05;3.65;;;8.50;99.90;;;;;;5056479;28;20044;-79
2023/05/20 03:30:41;;;;;;;11.98;3.85;;;8.70;99.90;;;;;;5057590;28;20037;-79
2023/05/20 03:33:09;;;;;;;14.25;3.92;;;8.70;99.90;;;;;;5039082;28;20494;-79
2023/05/20 03:35:36;;;;;;;13.25;4.10;;;8.80;99.90;;;;;;5055307;28;20047;-78
2023/05/20 03:40:34;;;;;;;12.27;4.30;;;8.80;99.90;;;;;;5055462;28;20049;-78
2023/05/20 03:43:02;;;;;;;10.75;4.10;;;8.80;99.90;;;;;;5055442;28;20480;-79
2023/05/20 03:45:29;;;;;;;14.70;4.10;;;8.90;99.90;;;;;;5055257;28;20045;-79
2023/05/20 03:48:04;;;;;;;13.30;4.07;;;9.00;99.90;;;;;;5039530;28;20069;-79
2023/05/20 03:50:32;;;;;;;14.43;4.32;;;9.00;99.90;;;;;;5056719;28;20041;-79
2023/05/20 03:53:00;;;;;;;13.73;4.05;;;9.00;99.90;;;;;;5055624;28;20044;-79
2023/05/20 03:55:32;;;;;;;14.70;4.13;;;9.00;99.90;;;;;;5064598;28;20052;-78
2023/05/20 03:58:00;;;;;;;16.63;4.80;;;9.10;99.90;;;;;;5074789;28;20475;-77
2023/05/20 04:00:29;;;;;;;13.88;4.72;;;9.10;99.90;;;;;;5075156;28;20037;-77
2023/05/20 04:02:56;;;;;;;11.40;4.10;;;9.00;99.90;;;;;;5073913;28;20144;-78
2023/05/20 04:05:24;;;;;;;16.20;5.38;;;9.00;99.90;;;;;;5074930;28;20382;-78
2023/05/20 04:07:53;;;;;;;10.43;4.18;;;9.10;99.90;;;;;;5074512;28;20139;-79
2023/05/20 04:10:22;;;;;;;19.05;5.25;;;9.10;99.90;;;;;;5074604;28;20040;-78
2023/05/20 04:12:51;;;;;;;16.00;4.63;;;9.20;99.90;;;;;;5074370;28;20044;-78
2023/05/20 04:15:18;;;;;;;12.23;4.07;;;9.20;99.90;;;;;;5073819;28;20040;-79
2023/05/20 04:17:54;;;;;;;18.55;4.53;;;9.20;99.90;;;;;;5074331;28;20053;-79
2023/05/20 04:20:21;;;;;;;17.25;4.47;;;9.10;99.90;;;;;;5074136;28;20112;-79
2023/05/20 04:22:49;;;;;;;21.73;5.00;;;9.10;99.90;;;;;;5073519;28;20060;-79
2023/05/20 04:25:16;;;;;;;20.27;4.68;;;9.10;99.90;;;;;;5074157;28;20114;-79
2023/05/20 04:27:43;;;;;;;13.57;4.80;;;9.10;99.90;;;;;;5075051;28;20467;-79
2023/05/20 04:30:10;;;;;;;17.77;4.80;;;9.10;99.90;;;;;;5073046;28;20493;-78
2023/05/20 04:32:40;;;;;;;16.77;3.38;;;9.20;99.90;;;;;;5057866;28;20448;-79
2023/05/20 04:35:10;;;;;;;14.50;5.05;;;9.20;99.90;;;;;;5057530;28;20051;-79
2023/05/20 04:37:41;;;;;;;20.10;5.63;;;9.20;99.90;;;;;;5072460;28;20161;-78
2023/05/20 04:40:08;;;;;;;12.70;4.95;;;9.20;99.90;;;;;;5072918;28;20052;-78
2023/05/20 04:42:35;;;;;;;13.30;5.20;;;9.20;99.90;;;;;;5056341;28;20041;-78
2023/05/20 04:45:04;;;;;;;19.45;5.35;;;9.20;99.90;;;;;;5073778;28;20075;-79
2023/05/20 04:47:37;;;;;;;20.90;5.50;;;9.30;99.90;;;;;;5057334;28;20041;-79
2023/05/20 04:50:04;;;;;;;20.15;5.40;;;9.40;99.90;;;;;;5073080;28;20064;-78
2023/05/20 04:52:32;;;;;;;24.60;5.03;;;9.40;99.90;;;;;;5073786;28;20113;-79
2023/05/20 04:55:00;;;;;;;23.10;4.95;;;9.50;99.90;;;;;;5052211;28;20390;-79
2023/05/20 04:57:27;;;;;;;20.38;6.07;;;9.50;99.90;;;;;;5036386;28;20383;-79
2023/05/20 04:59:57;;;;;;;19.20;5.50;;;9.50;99.90;;;;;;5037343;28;20095;-79
2023/05/20 05:02:24;;;;;;;12.40;4.78;;;9.60;99.90;;;;;;5052940;28;20045;-78
2023/05/20 05:04:52;;;;;;;24.42;6.03;;;9.70;99.90;;;;;;5053720;28;20056;-79
2023/05/20 05:07:21;;;;;;;16.30;5.25;;;9.50;99.90;;;;;;5038042;28;20424;-80
2023/05/20 05:09:48;;;;;;;20.38;5.40;;;9.50;99.90;;;;;;5052522;28;20379;-78
2023/05/20 05:12:15;;;;;;;22.15;6.28;;;9.50;99.90;;;;;;5053897;28;20053;-78
2023/05/20 05:14:42;;;;;;;21.33;5.72;;;9.50;99.90;;;;;;5053557;28;20041;-79
2023/05/20 05:19:56;;;;;;;17.30;5.35;;;9.60;99.90;;;;;;5053704;28;20450;-79
2023/05/20 05:22:24;;;;;;;15.52;5.20;;;9.70;99.90;;;;;;5036288;28;20133;-79
2023/05/20 05:24:51;;;;;;;20.13;5.65;;;9.70;99.90;;;;;;5053485;28;20056;-79
2023/05/20 05:30:06;;;;;;;23.33;5.80;;;9.90;99.90;;;;;;5052653;28;20060;-78
2023/05/20 05:32:32;;;;;;;15.20;5.70;;;9.90;99.90;;;;;;5053426;28;20051;-79
2023/05/20 05:34:59;;;;;;;18.45;6.50;;;9.80;99.90;;;;;;5053349;28;20072;-79
2023/05/20 05:37:28;;;;;;;15.45;6.03;;;9.90;99.90;;;;;;5036573;28;20041;-79
2023/05/20 05:39:55;;;;;;;14.52;5.70;;;9.90;99.90;;;;;;5050293;28;20041;-78
2023/05/20 05:42:22;;;;;;;18.23;6.00;;;9.90;99.90;;;;;;4999968;28;20396;-80
2023/05/20 05:44:50;;;;;;;18.10;5.35;;;10.00;99.90;;;;;;5001419;28;20334;-80
2023/05/20 05:47:18;;;;;;;23.67;5.72;;;10.10;99.90;;;;;;5017158;28;20132;-79
2023/05/20 05:49:45;;;;;;;20.80;5.72;;;10.10;99.90;;;;;;5015898;28;20419;-79
2023/05/20 05:52:12;;;;;;;14.07;4.85;;;10.20;99.90;;;;;;5018782;28;20049;-78
2023/05/20 05:54:40;;;;;;;16.00;5.47;;;10.20;99.90;;;;;;5024204;28;20049;-80
2023/05/20 05:57:10;;;;;;;18.65;6.07;;;10.20;99.90;;;;;;5039465;28;20068;-79
2023/05/20 05:59:37;;;;;;;18.52;5.78;;;10.30;99.90;;;;;;5023698;28;20075;-80
2023/05/20 06:02:04;;;;;;;15.18;5.63;;;10.30;99.90;;;;;;5057109;28;20037;-79
2023/05/20 06:04:31;;;;;;;17.25;6.03;;;10.30;99.90;;;;;;5058152;28;20040;-79
2023/05/20 06:06:58;;;;;;;19.38;6.38;;;10.30;99.90;;;;;;5040177;28;20522;-79
2023/05/20 06:09:25;;;;;;;17.13;5.40;;;10.50;99.90;;;;;;5039377;28;20118;-78
2023/05/20 06:11:52;;;;;;;17.42;5.78;;;10.60;99.90;;;;;;5040046;28;20036;-79
2023/05/20 06:14:19;;;;;;;20.75;5.95;;;10.50;99.90;;;;;;5040024;28;20041;-79
2023/05/20 06:16:47;;;;;;;18.33;5.85;;;10.40;99.90;;;;;;5039201;28;20418;-79
2023/05/20 06:19:16;;;;;;;16.35;5.30;;;10.50;99.90;;;;;;5039726;28;20102;-79
2023/05/20 06:21:44;;;;;;;19.40;6.43;;;10.60;99.90;;;;;;5040013;28;20468;-78
2023/05/20 06:24:10;;;;;;;21.75;5.68;;;10.60;99.90;;;;;;5022648;28;20460;-78
2023/05/20 06:26:37;;;;;;;15.48;5.78;;;10.60;99.90;;;;;;5039919;28;20055;-79
2023/05/20 06:29:04;;;;;;;18.02;6.35;;;10.70;99.90;;;;;;5038585;28;20060;-79
2023/05/20 06:31:31;;;;;;;22.73;6.80;;;10.70;99.90;;;;;;5039635;28;20037;-79
2023/05/20 06:33:58;;;;;;;19.23;6.35;;;10.70;99.90;;;;;;5040041;28;20044;-79
2023/05/20 06:38:59;;;;;;;19.00;6.38;;;10.70;99.90;;;;;;5039772;28;20053;-79
2023/05/20 06:41:26;;;;;;;19.77;6.70;;;10.70;99.90;;;;;;5049438;28;20049;-79
2023/05/20 06:43:53;;;;;;;20.98;6.65;;;10.80;99.90;;;;;;5076250;28;20040;-79
2023/05/20 06:46:46;;;;;;;26.48;6.60;;;10.80;99.90;;;;;;5063549;28;20067;-79
2023/05/20 06:49:14;;;;;;;19.25;7.03;;;10.80;99.90;;;;;;5075978;28;20410;-79
2023/05/20 06:51:42;;;;;;;17.10;5.78;;;11.00;99.90;;;;;;5076154;28;20041;-79
2023/05/20 06:54:09;;;;;;;20.42;5.88;;;11.10;99.90;;;;;;5077104;28;20056;-78
2023/05/20 06:56:37;;;;;;;32.47;6.80;;;11.30;99.90;;;;;;5059746;28;20483;-78
2023/05/20 06:59:04;;;;;;;17.75;6.43;;;11.30;99.90;;;;;;5076134;28;20071;-79
2023/05/20 07:01:33;;;;;;;17.83;5.93;;;11.40;99.90;;;;;;5077645;28;20048;-79
2023/05/20 07:04:00;;;;;;;18.40;5.82;;;11.50;99.90;;;;;;5050539;28;20067;-80
2023/05/20 07:06:30;;;;;;;17.40;5.90;;;11.50;99.90;;;;;;5075713;28;20093;-80
2023/05/20 07:08:57;;;;;;;21.40;6.25;;;11.50;99.90;;;;;;5075074;28;20049;-78
2023/05/20 07:11:24;;;;;;;16.60;5.82;;;11.60;99.90;;;;;;5075618;28;20048;-79
2023/05/20 07:13:52;;;;;;;17.10;6.80;;;11.60;99.90;;;;;;5076125;28;20069;-80
2023/05/20 07:16:21;;;;;;;20.25;6.57;;;11.50;99.90;;;;;;5074783;28;20592;-78
2023/05/20 07:18:52;;;;;;;13.35;5.18;;;11.70;99.90;;;;;;5075661;28;20047;-79
2023/05/20 07:21:19;;;;;;;18.83;6.90;;;11.60;99.90;;;;;;5058596;28;20041;-79
2023/05/20 07:23:59;;;;;;;24.95;7.03;;;11.70;99.90;;;;;;5055174;28;20041;-79
2023/05/20 07:26:27;;;;;;;26.60;6.63;;;11.90;99.90;;;;;;5056203;28;20094;-78
2023/05/20 07:28:54;;;;;;;17.45;6.05;;;12.10;99.90;;;;;;5053247;28;20063;-79
2023/05/20 07:31:22;;;;;;;18.67;5.80;;;12.40;99.90;;;;;;5071823;28;20476;-81
2023/05/20 07:33:49;;;;;;;18.58;6.78;;;12.50;99.90;;;;;;5071637;28;20070;-79
2023/05/20 07:36:16;;;;;;;23.63;6.55;;;12.40;99.90;;;;;;5073968;28;20078;-79
2023/05/20 07:38:47;;;;;;;19.67;6.20;;;12.50;99.90;;;;;;5058643;28;20037;-78
2023/05/20 07:41:29;;;;;;;18.00;5.38;;;12.60;99.90;;;;;;5060313;28;20052;-79
2023/05/20 07:43:56;;;;;;;18.02;6.15;;;12.90;99.90;;;;;;5056996;28;20048;-79
2023/05/20 07:46:22;;;;;;;17.00;7.07;;;13.20;99.90;;;;;;5058086;28;20064;-78
2023/05/20 07:48:50;;;;;;;18.40;6.65;;;13.30;99.90;;;;;;5053520;28;20479;-79
2023/05/20 07:51:17;;;;;;;20.58;6.78;;;13.40;99.90;;;;;;5054517;28;20059;-79
2023/05/20 07:53:44;;;;;;;19.98;5.97;;;13.50;99.90;;;;;;5054422;28;20083;-79
2023/05/20 07:56:11;;;;;;;19.60;5.90;;;13.60;99.90;;;;;;5053102;28;20045;-79
2023/05/20 07:58:38;;;;;;;16.48;6.18;;;13.70;99.90;;;;;;5053921;28;20375;-79
2023/05/20 08:01:05;;;;;;;19.00;5.72;;;13.70;99.90;;;;;;5054464;28;20037;-78
2023/05/20 08:03:31;;;;;;;20.50;6.57;;;13.30;99.90;;;;;;5054252;28;20415;-79
2023/05/20 08:06:09;;;;;;;15.57;5.93;;;13.30;99.90;;;;;;5054380;28;20045;-79
2023/05/20 08:08:36;;;;;;;21.00;6.50;;;13.20;99.90;;;;;;5054641;28;20429;-79
2023/05/20 08:11:08;;;;;;;;;;;13.40;99.90;;;;;;5075851;28;20071;-79
2023/05/20 08:13:36;;;;;;;22.15;6.55;;;13.40;99.90;;;;;;5070858;28;20302;-79
2023/05/20 08:16:04;;;;;;;15.35;6.18;;;13.40;99.90;;;;;;5053070;28;20041;-79
2023/05/20 08:18:31;;;;;;;17.98;5.22;;;13.40;99.90;;;;;;5053987;28;20479;-79
2023/05/20 08:20:58;;;;;;;18.60;5.18;;;13.60;99.90;;;;;;5053360;28;20102;-79
2023/05/20 08:23:25;;;;;;;17.35;5.28;;;13.70;99.90;;;;;;5069415;28;20045;-79
2023/05/20 08:25:52;;;;;;;19.15;5.53;;;13.90;99.90;;;;;;5070618;28;20425;-79
2023/05/20 08:28:22;;;;;;;23.17;6.80;;;14.20;99.90;;;;;;5054237;28;20059;-79
2023/05/20 08:30:50;;;;;;;22.13;6.28;;;14.20;99.90;;;;;;5051371;28;20366;-79
2023/05/20 08:33:18;;;;;;;19.02;5.72;;;14.20;99.90;;;;;;5053647;28;20045;-79
2023/05/20 08:35:45;;;;;;;12.32;5.57;;;14.10;99.90;;;;;;5036208;28;20415;-79
2023/05/20 08:38:11;;;;;;;18.90;5.90;;;14.20;99.90;;;;;;5053799;28;20098;-79
2023/05/20 08:40:38;;;;;;;23.13;5.90;;;14.40;99.90;;;;;;5053054;28;20114;-79
2023/05/20 08:43:06;;;;;;;16.50;5.63;;;14.70;99.90;;;;;;5052561;28;20119;-79
2023/05/20 08:45:34;;;;;;;19.38;5.97;;;15.00;99.90;;;;;;5053533;28;20099;-79
2023/05/20 08:48:05;;;;;;;15.27;5.43;;;15.20;99.90;;;;;;5053401;28;20053;-79
2023/05/20 08:50:32;;;;;;;18.13;6.32;;;15.40;99.90;;;;;;5052294;28;20266;-79
2023/05/20 08:52:58;;;;;;;16.23;5.57;;;15.60;99.90;;;;;;5054529;28;20131;-78
2023/05/20 08:55:25;;;;;;;15.40;5.50;;;15.60;99.90;;;;;;5052318;28;20081;-79
2023/05/20 08:57:53;;;;;;;15.00;5.43;;;15.80;99.90;;;;;;5054427;28;20063;-79
2023/05/20 09:00:20;;;;;;;14.57;5.53;;;16.10;99.90;;;;;;5053343;28;20044;-79
2023/05/20 09:02:47;;;;;;;17.95;5.25;;;16.30;99.90;;;;;;5052276;28;20124;-79
2023/05/20 09:05:14;;;;;;;18.60;5.07;;;16.50;99.90;;;;;;5053391;28;20503;-78
2023/05/20 09:07:42;;;;;;;15.85;5.05;;;16.70;99.90;;;;;;5054206;28;20467;-79
2023/05/20 09:10:09;;;;;;;18.73;4.85;;;17.00;99.90;;;;;;5052951;28;20064;-80
2023/05/20 09:12:36;;;;;;;13.70;4.78;;;17.10;99.90;;;;;;5054261;28;20068;-79
2023/05/20 09:15:04;;;;;;;14.55;4.85;;;17.00;99.90;;;;;;5054108;28;20128;-79
2023/05/20 09:17:30;;;;;;;16.83;5.32;;;16.90;99.90;;;;;;5053234;28;20040;-79
2023/05/20 09:19:57;;;;;;;16.35;4.95;;;16.80;99.90;;;;;;5053680;28;20199;-79
2023/05/20 09:22:24;;;;;;;15.52;4.85;;;17.10;99.90;;;;;;5052349;28;20091;-79
2023/05/20 09:24:51;;;;;;;19.60;4.32;;;17.10;99.90;;;;;;5065317;28;20033;-79
2023/05/20 09:27:17;;;;;;;16.88;5.05;;;17.00;99.90;;;;;;5074982;28;20275;-79
2023/05/20 09:29:45;;;;;;;14.48;4.50;;;17.20;99.90;;;;;;5076478;28;20072;-79
2023/05/20 09:32:12;;;;;;;13.45;4.38;;;17.40;99.90;;;;;;5078253;28;20379;-79
2023/05/20 09:34:40;;;;;;;18.05;4.32;;;17.60;99.90;;;;;;5078220;28;20119;-79
2023/05/20 09:37:07;;;;;;;14.07;4.22;;;18.00;99.90;;;;;;5076912;28;20136;-79
2023/05/20 09:39:34;;;;;;;14.18;4.18;;;18.20;99.90;;;;;;5076623;28;20055;-79
2023/05/20 09:42:01;;;;;;;11.02;3.78;;;18.50;99.90;;;;;;5056614;28;20049;-79
2023/05/20 09:44:30;;;;;;;13.60;4.13;;;18.60;99.90;;;;;;5039963;28;20053;-79
2023/05/20 09:46:57;;;;;;;13.32;4.45;;;18.40;99.90;;;;;;5057814;28;20037;-79
2023/05/20 09:49:25;;;;;;;12.48;3.72;;;18.70;99.90;;;;;;5038173;28;20479;-79
2023/05/20 09:51:51;;;;;;;12.65;4.07;;;19.00;99.90;;;;;;5040424;28;20041;-85
2023/05/20 09:54:18;;;;;;;16.58;4.10;;;19.30;99.90;;;;;;5040322;28;20118;-79
2023/05/20 09:56:45;;;;;;;12.35;3.78;;;19.50;99.90;;;;;;5056763;28;20064;-80
2023/05/20 09:59:11;;;;;;;13.65;4.13;;;19.80;99.90;;;;;;5040148;28;20120;-79
2023/05/20 10:01:38;;;;;;;13.65;3.60;;;20.10;99.90;;;;;;5039962;28;20068;-79
2023/05/20 10:04:05;;;;;;;14.63;4.00;;;20.30;99.90;;;;;;5056686;28;20526;-79
2023/05/20 10:06:33;;;;;;;13.77;3.92;;;20.50;99.90;;;;;;5057513;28;20064;-80
2023/05/20 10:08:59;;;;;;;15.52;4.25;;;20.20;99.90;;;;;;5055941;28;20836;-79
2023/05/20 10:11:26;;;;;;;17.35;3.85;;;20.20;99.90;;;;;;5057433;28;20065;-79
2023/05/20 10:13:53;;;;;;;14.93;3.92;;;20.50;99.90;;;;;;5057434;28;20052;-79
2023/05/20 10:16:22;;;;;;;13.18;3.28;;;20.40;99.90;;;;;;5039094;28;20040;-79
2023/05/20 10:18:49;;;;;;;15.73;3.50;;;20.50;99.90;;;;;;5057011;28;20494;-80
2023/05/20 10:21:16;;;;;;;12.75;3.88;;;20.60;99.90;;;;;;5039509;28;20379;-79
2023/05/20 10:23:43;;;;;;;9.45;3.70;;;20.70;99.90;;;;;;5036355;28;20065;-79
2023/05/20 10:26:10;;;;;;;11.20;3.40;;;20.70;99.90;;;;;;5019866;28;20129;-78
2023/05/20 10:28:37;;;;;;;10.15;3.40;;;21.00;99.90;;;;;;5037574;28;20091;-79
2023/05/20 10:31:03;;;;;;;11.13;3.50;;;20.70;99.90;;;;;;5036822;28;20471;-78
2023/05/20 10:33:30;;;;;;;9.38;3.28;;;20.60;99.90;;;;;;5037197;28;20124;-79
2023/05/20 10:35:58;;;;;;;11.07;3.10;;;20.50;99.90;;;;;;5036872;28;20372;-79
2023/05/20 10:38:25;;;;;;;23.27;5.75;;;20.20;99.90;;;;;;5035783;28;20529;-80
2023/05/20 10:40:52;;;;;;;13.60;4.03;;;19.90;99.90;;;;;;5036899;28;20133;-79
2023/05/20 10:43:18;;;;;;;14.85;3.58;;;19.90;99.90;;;;;;5018859;28;20060;-80
2023/05/20 10:45:46;;;;;;;13.70;4.22;;;20.10;99.90;;;;;;5019619;28;20435;-79
2023/05/20 10:48:13;;;;;;;11.63;3.75;;;20.40;99.90;;;;;;5019872;28;20042;-79
2023/05/20 10:50:39;;;;;;;12.57;3.30;;;20.60;99.90;;;;;;5018855;28;20088;-79
2023/05/20 10:53:06;;;;;;;10.15;3.22;;;21.20;99.90;;;;;;5037264;28;20519;-78
2023/05/20 10:55:41;;;;;;;11.82;3.38;;;21.50;99.90;;;;;;5045911;28;20135;-76
2023/05/20 11:00:53;;;;;;;13.20;3.83;;;21.30;99.90;;;;;;5066397;28;20029;-80
2023/05/20 11:03:20;;;;;;;8.85;3.03;;;21.50;99.90;;;;;;5058230;28;20050;-80
2023/05/20 11:05:47;;;;;;;8.82;2.83;;;21.30;99.90;;;;;;5059451;28;20052;-80
2023/05/20 11:08:14;;;;;;;14.02;3.53;;;21.30;99.90;;;;;;5076171;28;20123;-79
2023/05/20 11:10:54;;;;;;;13.90;3.60;;;21.40;99.90;;;;;;5028050;28;20055;-79
2023/05/20 11:13:21;;;;;;;8.68;3.08;;;21.20;99.90;;;;;;5018513;28;20537;-79
2023/05/20 11:15:48;;;;;;;13.27;3.92;;;21.10;99.90;;;;;;5017541;28;20059;-79
2023/05/20 11:18:14;;;;;;;8.07;2.80;;;21.70;99.90;;;;;;5018471;28;20483;-79
2023/05/20 11:20:45;;;;;;;11.32;3.72;;;22.30;99.90;;;;;;5049352;28;20033;-79
2023/05/20 11:23:12;;;;;;;7.32;2.60;;;22.20;99.90;;;;;;5055143;28;20095;-80
2023/05/20 11:25:39;;;;;;;10.02;3.55;;;21.60;99.60;;;;;;5038692;28;20083;-79
2023/05/20 11:28:06;;;;;;;11.30;3.10;;;21.00;99.90;;;;;;5056104;28;20044;-80
2023/05/20 11:30:33;;;;;;;7.15;2.60;;;20.80;99.90;;;;;;5054167;28;20128;-79
2023/05/20 11:33:00;;;;;;;8.45;2.88;;;20.50;99.90;;;;;;5055782;28;20435;-79
2023/05/20 11:35:30;;;;;;;11.50;2.72;;;20.50;99.90;;;;;;5055253;28;20415;-79
2023/05/20 11:37:58;;;;;;;10.15;2.65;;;21.60;99.90;;;;;;5056188;28;20106;-78
2023/05/20 11:40:25;;;;;;;8.90;2.50;;;21.60;96.60;;;;;;5048064;28;20063;-78
2023/05/20 11:42:58;;;;;;;12.13;3.22;;;21.40;97.10;;;;;;5075021;28;20120;-79
2023/05/20 11:45:26;;;;;;;7.93;3.05;;;21.00;97.90;;;;;;5076125;28;20033;-79
2023/05/20 11:47:53;;;;;;;10.15;2.83;;;20.60;99.00;;;;;;5076080;28;20099;-78
2023/05/20 11:50:20;;;;;;;9.25;2.80;;;20.20;99.40;;;;;;5074472;28;20044;-79
2023/05/20 11:52:46;;;;;;;11.38;3.10;;;20.00;99.90;;;;;;5076470;28;20394;-79
2023/05/20 11:55:14;;;;;;;9.27;2.80;;;20.30;99.90;;;;;;5074898;28;20060;-80
2023/05/20 11:57:42;;;;;;;9.13;3.05;;;21.30;99.90;;;;;;5074882;28;20067;-80
2023/05/20 12:00:09;;;;;;;11.43;3.38;;;22.50;98.80;;;;;;5075407;28;20100;-80
2023/05/20 12:02:36;;;;;;;13.18;2.90;;;23.50;94.00;;;;;;5074675;28;20090;-79
2023/05/20 12:05:03;;;;;;;10.00;3.13;;;24.10;91.90;;;;;;5075584;28;20044;-79
2023/05/20 12:07:30;;;;;;;9.55;2.50;;;24.30;92.80;;;;;;5075435;28;20040;-79
2023/05/20 12:09:57;;;;;;;9.95;3.25;;;23.10;90.50;;;;;;5074752;28;20509;-81
2023/05/20 12:12:24;;;;;;;9.85;2.85;;;22.40;91.50;;;;;;5075429;28;20037;-80
2023/05/20 12:14:51;;;;;;;9.60;2.80;;;21.70;92.40;;;;;;5075067;28;20087;-80
2023/05/20 12:17:18;;;;;;;11.45;3.40;;;21.80;93.90;;;;;;5074508;28;20378;-80
2023/05/20 12:19:44;;;;;;;9.60;3.10;;;22.10;94.90;;;;;;5067384;28;20045;-79
2023/05/20 12:22:11;;;;;;;9.85;2.70;;;21.90;92.60;;;;;;5054379;28;20352;-80
2023/05/20 12:24:38;;;;;;;8.80;2.65;;;21.50;91.70;;;;;;5064473;28;20433;-79
2023/05/20 12:27:06;;;;;;;9.48;2.58;;;21.30;91.60;;;;;;5075034;28;20352;-80
2023/05/20 12:29:33;;;;;;;9.50;3.50;;;21.60;91.50;;;;;;5074012;28;20047;-80
2023/05/20 12:32:00;;;;;;;12.40;3.72;;;22.60;93.30;;;;;;5074110;28;20051;-79
2023/05/20 12:34:27;;;;;;;10.52;3.00;;;23.40;90.20;;;;;;5073885;28;20086;-79
2023/05/20 12:36:53;;;;;;;11.02;3.47;;;23.80;88.80;;;;;;5074038;28;20128;-79
2023/05/20 12:39:20;;;;;;;14.13;3.25;;;24.10;88.10;;;;;;5057084;28;20065;-79
2023/05/20 12:41:47;;;;;;;8.98;3.10;;;24.40;84.20;;;;;;5056738;28;20041;-79
2023/05/20 12:44:13;;;;;;;7.60;3.20;;;24.40;80.40;;;;;;5053996;28;20041;-79
2023/05/20 12:46:41;;;;;;;10.70;3.60;;;24.30;83.00;;;;;;5052690;28;20033;-78
2023/05/20 12:49:08;;;;;;;9.60;3.40;;;24.30;80.10;;;;;;5053835;28;20037;-77
2023/05/20 12:51:35;;;;;;;8.43;3.05;;;24.60;78.80;;;;;;5062108;28;20128;-79
2023/05/20 12:54:01;;;;;;;8.55;2.88;;;25.00;81.10;;;;;;5052017;28;20040;-79
2023/05/20 12:56:29;;;;;;;13.13;3.13;;;25.00;82.20;;;;;;5073604;28;20090;-79
2023/05/20 12:58:59;;;;;;;15.27;3.30;;;24.70;78.40;;;;;;5074467;28;20051;-79
2023/05/20 13:01:25;;;;;;;13.07;2.72;;;24.20;79.20;;;;;;5073853;28;20086;-81
2023/05/20 13:03:52;;;;;;;10.00;2.90;;;24.60;79.30;;;;;;5025006;28;20041;-76
2023/05/20 13:06:21;;;;;;;10.00;3.38;;;25.30;76.70;;;;;;5054503;28;20037;-76
2023/05/20 13:08:48;;;;;;;13.07;3.67;;;26.10;77.30;;;;;;5035933;28;20494;-76
2023/05/20 13:11:15;;;;;;;11.43;3.10;;;26.00;74.10;;;;;;5047643;28;20049;-77